• Join FlightAware (Why Join?)
  • Login
  • US Flag 
02:15PM EDT


 

Airport Tracker/Info


-or-


 

Live Flight TrackerFlight Track Log ✈ N585BG ✈ 02-May-2013 ✈ KSAF - KHND

Flight Track Log - Related Links

Times and Time Zones

All times are in EDT time to prevent confusion due to time zone crossing. See the N585BG flight status page for this flight to view local times or setup timezone preferences in your user account.

Time Position Orientation Groundspeed Altitude Reporting Facility
EDT Latitude Longitude Course Direction KTS MPH feet Rate Location/Type
01:26PM 35.5953 -106.1800 266° West 198 228 9,200  Level Albuquerque Center
01:27PM 35.5894 -106.2561 265° West 210 242 11,200 2,040 Climbing Albuquerque Center
01:29PM 35.5897 -106.3533 270° West 230 265 13,500 1,860 Climbing Albuquerque Center
01:30PM 35.5908 -106.4356 271° West 240 276 15,100 1,620 Climbing Albuquerque Center
01:31PM 35.5834 -106.7542 270° West  Level FlightAware Approximate
01:31PM 35.5831 -106.5167 263° West 240 276 16,900  Level Albuquerque Center
01:32PM 35.5806 -106.5933 268° West 230 265 17,800 960 Climbing Albuquerque Center
01:33PM 35.5781 -106.6697 268° West 226 260 19,000 540 Climbing Albuquerque Center
01:34PM 35.5731 -106.7561 266° West 246 283 19,000 180 Level Albuquerque Center
01:35PM 35.5692 -106.8733 268° West 281 323 19,400 840 Climbing Albuquerque Center
01:36PM 35.5661 -106.9647 268° West 276 318 20,800 1,200 Climbing Albuquerque Center
01:37PM 35.5622 -107.0469 267° West 250 288 21,900 780 Climbing Albuquerque Center
01:38PM 35.5586 -107.1322 267° West 249 287 22,500 720 Climbing Albuquerque Center
01:39PM 35.5539 -107.2350 267° West 254 292 23,500 780 Climbing Albuquerque Center
01:40PM 35.5506 -107.3164 267° West 251 289 24,200 720 Climbing Albuquerque Center
01:41PM 35.5467 -107.4122 267° West 251 289 25,000 720 Climbing Albuquerque Center
01:42PM 35.5442 -107.4925 268° West 249 287 25,700 540 Climbing Albuquerque Center
01:43PM 35.5417 -107.5733 268° West 248 285 26,200 480 Climbing Albuquerque Center
01:44PM 35.5361 -107.6700 266° West 252 290 26,800 480 Climbing Albuquerque Center
01:45PM 35.5322 -107.7539 267° West 255 293 27,300 540 Climbing Albuquerque Center
01:46PM 35.5281 -107.8517 267° West 256 295 28,000 300 Climbing Albuquerque Center
01:47PM 35.5247 -107.9353 267° West 257 296 28,000  Level Albuquerque Center
01:48PM 35.5197 -108.0392 267° West 269 310 28,000  Level Albuquerque Center
01:49PM 35.5153 -108.1317 267° West 278 320 28,000  Level Albuquerque Center
01:50PM 35.5103 -108.2417 267° West 285 328 28,000  Level Albuquerque Center
01:51PM 35.5050 -108.3358 266° West 288 331 28,000  Level Albuquerque Center
01:52PM 35.4997 -108.4461 267° West 290 334 28,000  Level Albuquerque Center
01:53PM 35.4944 -108.5419 266° West 291 335 28,000  Level Albuquerque Center
01:54PM 35.4886 -108.6550 266° West 295 339 28,000  Level Albuquerque Center
01:55PM 35.4833 -108.7511 266° West 295 339 28,000  Level Albuquerque Center
01:56PM 35.4778 -108.8486 266° West 297 342 28,000  Level Albuquerque Center
01:57PM 35.4811 -108.9608 272° West 295 339 28,000  Level Albuquerque Center
01:59PM 35.4861 -109.0575 274° West 296 341 28,000  Level Albuquerque Center
02:00PM 35.4922 -109.1711 274° West 298 343 28,000  Level Albuquerque Center
02:01PM 35.4969 -109.2697 273° West 301 346 28,000  Level Albuquerque Center
02:02PM 35.5025 -109.3853 273° West 302 348 28,000  Level Albuquerque Center
02:03PM 35.5058 -109.4811 272° West 297 342 28,000  Level Albuquerque Center
02:04PM 35.5106 -109.5783 273° West 296 341 28,000  Level Albuquerque Center
02:05PM 35.5150 -109.6928 273° West 299 344 28,000  Level Albuquerque Center
02:06PM 35.5189 -109.7914 273° West 301 346 28,000  Level Albuquerque Center
02:07PM 35.5283 -109.9097 276° West 307 353 28,000  Level Albuquerque Center
02:08PM 35.5322 -110.0056 273° West 298 343 28,000  Level Albuquerque Center
02:09PM 35.5364 -110.1167 273° West 294 338 28,000  Level Albuquerque Center
02:10PM 35.5417 -110.2167 274° West 300 345 28,000  Level Albuquerque Center
02:11PM 35.5464 -110.3325 273° West 303 349 28,000  Level Albuquerque Center
02:12PM 35.5500 -110.4311 273° West 302 348 28,000  Level Albuquerque Center
02:13PM 35.5542 -110.5292 273° West 301 346 28,000  Level Albuquerque Center
02:14PM 35.5578 -110.6439 272° West 301 346 28,000  Level Albuquerque Center
02:15PM 35.5622 -110.7414 273° West 298 343 28,000  Level Albuquerque Center
02:16PM 35.5667 -110.8564 273° West 302 348 28,000  Level Albuquerque Center
02:17PM 35.5683 -110.9525 271° West 297 342 28,000  Level Albuquerque Center
02:18PM 35.5725 -111.0703 273° West 304 350 28,000  Level Albuquerque Center
02:19PM 35.5739 -111.1675 271° West 300 345 28,000  Level Albuquerque Center
02:20PM 35.5778 -111.2817 272° West 300 345 28,000  Level Albuquerque Center
02:21PM 35.5803 -111.3806 272° West 299 344 28,000  Level Albuquerque Center
02:22PM 35.5819 -111.4906 271° West 303 349 28,000  Level Albuquerque Center
02:23PM 35.5831 -111.5936 271° West 304 350 28,000  Level Albuquerque Center
02:24PM 35.5869 -111.6972 273° West 305 351 28,000  Level Albuquerque Center
02:25PM 35.5858 -111.8006 269° West 307 353 28,000  Level Albuquerque Center
02:26PM 35.5883 -111.9044 272° West 308 354 28,000  Level Albuquerque Center
02:27PM 35.5919 -112.0089 272° West 308 354 28,000 -300 Level Albuquerque Center
02:28PM 35.5944 -112.1150 272° West 311 358 27,500 -600 Descending Albuquerque Center
02:29PM 35.5992 -112.2033 274° West 316 364 27,000 -540 Descending Los Angeles Center
02:29PM 35.5994 -112.2464 270° West 321 369 27,000 -240 Level Albuquerque Center
02:30PM 35.6011 -112.3544 271° West 320 368 26,700 -720 Descending Albuquerque Center
02:31PM 35.6042 -112.4447 272° West 322 371 25,800 -960 Descending Los Angeles Center
02:32PM 35.6067 -112.5594 272° West 334 384 25,000 -780 Descending Los Angeles Center
02:33PM 35.6097 -112.6786 272° West 332 382 24,300 -780 Descending Los Angeles Center
02:34PM 35.6119 -112.7925 271° West 333 383 23,400 -780 Descending Los Angeles Center
02:35PM 35.6131 -112.8994 271° West 317 365 22,800 -840 Descending Los Angeles Center
02:36PM 35.6147 -113.0103 271° West 307 353 21,700 -1,020 Descending Los Angeles Center
02:37PM 35.6175 -113.1172 272° West 311 358 20,700 -900 Descending Los Angeles Center
02:38PM 35.6181 -113.2219 270° West 306 352 19,900 -900 Descending Los Angeles Center
02:40PM 35.6206 -113.3472 271° West 306 352 18,900 -960 Descending Los Angeles Center
02:41PM 35.6219 -113.4517 271° West 308 354 18,000 -660 Descending Los Angeles Center
02:42PM 35.6242 -113.5564 272° West 308 354 17,600 -540 Descending Los Angeles Center
02:43PM 35.6397 -113.6581 281° West 307 353 16,900 -660 Descending Los Angeles Center
02:44PM 35.6547 -113.7617 280° West 308 354 16,300 -1,020 Descending Los Angeles Center
02:45PM 35.6725 -113.8853 280° West 311 358 14,900 -1,260 Descending Los Angeles Center
02:46PM 35.6869 -113.9894 280° West 311 358 13,700 -1,140 Descending Los Angeles Center
02:47PM 35.6997 -114.0850 279° West 289 333 12,600 -840 Descending Los Angeles Center
02:48PM 35.7136 -114.1842 280° West 283 326 12,000 -420 Descending Los Angeles Center
02:48PM 35.7236 -114.2417 282° West 283 326 12,000  Level Los Angeles Center
02:49PM 35.7261 -114.2767 275° West 277 319 12,000  Level Los Angeles Center
02:49PM 35.7358 -114.3439 280° West 285 328 12,000  Level Los Angeles Center
02:50PM 35.7403 -114.3742 280° West 288 331 12,000  Level Los Angeles Center
02:50PM 35.7569 -114.4375 288° West 282 325 12,000 -120 Level Los Angeles Center
02:51PM 35.7575 -114.4692 271° West 285 328 11,900 -1,320 Descending Los Angeles Center
02:51PM 35.7553 -114.5364 268° West 287 330 10,700 -1,860 Descending Los Angeles Center
02:52PM 35.7533 -114.5861 267° West 284 327 10,000 -840 Descending Los Angeles Center
02:52PM 35.7531 -114.6328 270° West 282 325 9,900 -120 Descending Los Angeles Center
02:53PM 35.7550 -114.6778 273° West 275 316 9,900 60 Level Los Angeles Center
02:53PM 35.7544 -114.7169 269° West 250 288 10,000  Climbing Los Angeles Center
02:54PM 35.7558 -114.7606 272° West 252 290 9,900 -600 Descending Los Angeles Center
02:54PM 35.7558 -114.8014 270° West 248 285 9,400 -1,020 Descending Los Angeles Center
02:55PM 35.7564 -114.8469 271° West 251 289 8,900 -900 Descending Los Angeles Center
02:56PM 35.7531 -114.9058 266° West 262 302 8,400 -780 Descending Los Angeles Center
02:56PM 35.7581 -114.9372 281° West 257 296 8,100 -1,020 Descending Los Angeles Center
02:57PM 35.7739 -114.9917 290° West 257 296 7,400 -1,020 Descending Los Angeles Center
02:57PM 35.7822 -115.0203 290° West 258 297 7,100 -1,020 Descending Los Angeles Center
02:58PM 35.7953 -115.0694 288° West 237 273 6,400 -1,560 Descending Los Angeles Center
02:58PM 35.8058 -115.1086 288° West 241 277 5,500 -1,200 Descending Los Angeles Center
02:59PM 35.8144 -115.1375 290° West 204 235 5,200 -540 Descending Los Angeles Center
02:59PM 35.8386 -115.1397 356° North 205 236 5,000 -120 Descending Los Angeles Center
03:00PM 35.8561 -115.1397 360° North 158 182 5,100  Climbing Los Angeles Center
03:00PM 35.8800 -115.1358 North 196 226 5,000 -840 Descending Los Angeles Center
03:01PM 35.9050 -115.1369 358° North 161 185 4,300 -1,440 Descending Los Angeles Center
03:02PM 35.9375 -115.1367 360° North 124 143 3,100 -1,200 Descending Los Angeles Center
03:04PM 35.9667 -115.1333 North  Level FlightAware Approximate
03:11PM 35.9729 -115.1344 North  Level Estimated